createdAt,value
2023-01-03T12:24:31.916Z,43.24
2023-01-03T12:24:46.886Z,43.27
2023-01-03T12:32:32.066Z,46.32
2023-01-03T12:42:41.715Z,46.93
2023-01-03T12:52:49.184Z,46.48
2023-01-03T13:02:57.947Z,46.97
2023-01-03T13:13:06.319Z,47.23
2023-01-03T13:23:14.095Z,46.79
2023-01-03T13:33:21.388Z,46.33
2023-01-03T13:43:28.338Z,46.51
2023-01-03T13:53:36.353Z,47.26
2023-01-03T14:03:44.011Z,47.61
2023-01-03T14:13:51.093Z,46.88
2023-01-03T14:24:00.177Z,47.35
2023-01-03T14:34:08.356Z,47.74
2023-01-03T14:44:15.632Z,47.45
2023-01-03T14:54:22.770Z,47.50
2023-01-03T15:04:29.497Z,47.62
2023-01-03T15:14:36.184Z,47.14
2023-01-03T15:24:43.860Z,47.65
2023-01-03T15:34:50.615Z,47.75
2023-01-03T15:44:57.616Z,47.67
2023-01-03T15:55:04.664Z,47.45
2023-01-03T16:05:15.105Z,45.73
2023-01-03T16:15:22.782Z,47.36
2023-01-03T16:25:30.113Z,47.99
2023-01-03T16:35:36.913Z,48.31
2023-01-03T16:45:47.507Z,48.42
2023-01-03T16:55:54.757Z,48.44
2023-01-03T17:06:02.036Z,48.56
2023-01-03T17:16:09.164Z,48.58
2023-01-03T17:26:16.039Z,48.56
2023-01-03T17:36:23.081Z,48.48
2023-01-03T17:46:30.088Z,48.40
2023-01-03T17:56:37.456Z,48.21
2023-01-03T18:06:44.288Z,48.65
2023-01-03T18:16:55.026Z,49.01
2023-01-03T18:27:02.449Z,49.04
2023-01-03T18:37:09.723Z,49.11
2023-01-03T18:47:16.200Z,49.04
2023-01-03T18:57:23.444Z,49.04
2023-01-03T19:07:31.038Z,48.95
2023-01-03T19:17:37.913Z,48.87
2023-01-03T19:27:45.391Z,48.79
2023-01-03T19:37:52.640Z,48.75
2023-01-03T19:47:59.546Z,48.77
2023-01-03T19:58:06.544Z,48.65
2023-01-03T20:08:13.595Z,48.57
2023-01-03T20:18:21.126Z,48.61
2023-01-03T20:28:27.513Z,48.41
2023-01-03T20:38:34.848Z,48.45
2023-01-03T20:48:41.960Z,48.49
2023-01-03T20:58:48.982Z,48.39
2023-01-03T21:08:56.401Z,48.27
2023-01-03T21:19:04.342Z,48.26
2023-01-03T21:29:11.255Z,48.18
2023-01-03T21:39:18.266Z,48.29
2023-01-03T21:49:25.473Z,48.08
2023-01-03T21:59:32.104Z,48.04
2023-01-03T22:09:39.086Z,48.00
2023-01-03T22:19:46.546Z,48.00
2023-01-03T22:29:53.117Z,47.95
2023-01-03T22:40:00.588Z,47.97
2023-01-03T22:50:07.832Z,47.96
2023-01-03T23:00:14.625Z,47.98
2023-01-03T23:10:21.909Z,47.92
2023-01-03T23:20:28.940Z,47.78
2023-01-03T23:30:36.312Z,47.75
2023-01-03T23:40:44.235Z,47.53
2023-01-03T23:50:51.854Z,47.47
